Jardine, Montana
Current Conditions -  °F | °C
As of 12:53 PM on Friday 28 Nov 2014 (Local Time) from KLVM Reporting Station
Clear Clear  
Wind Chill: 56°   Ceiling: Unl
Heat Index: 56°   Visibility: 10mi
Dew Point: 21°   Wind: 33mph
Humidity: 26%   Direction: 230°SW
Pressure: 29.56"   Gusts: 49mph
Location:  45.0924°N, 110.236°W
Report Text: KLVM 281953Z AUTO 23029G43KT 10SM CLR 13/M06 A2956 RMK AO2 PK WND 22046/1926 SLP985 T01331061
Loading
Personal Weather Stations






























Interactive Weather Map New forecast layout! Learn more

10-Day Weather Forecast

Advertisements
Track Severe Weather on mobile